sensor_id;sensor_type;location;lat;lon;timestamp;temperature;humidity
16154;DHT22;8182;55.648;13.208;2022-07-10T00:00:08;14.00;99.90
16154;DHT22;8182;55.648;13.208;2022-07-10T00:02:36;13.90;99.90
16154;DHT22;8182;55.648;13.208;2022-07-10T00:05:05;13.90;99.90
16154;DHT22;8182;55.648;13.208;2022-07-10T00:07:39;13.90;99.90
16154;DHT22;8182;55.648;13.208;2022-07-10T00:10:07;13.90;99.90
16154;DHT22;8182;55.648;13.208;2022-07-10T00:12:35;13.90;99.90
16154;DHT22;8182;55.648;13.208;2022-07-10T00:15:03;13.70;99.90
16154;DHT22;8182;55.648;13.208;2022-07-10T00:17:31;13.80;99.90
16154;DHT22;8182;55.648;13.208;2022-07-10T00:19:59;13.80;99.90
16154;DHT22;8182;55.648;13.208;2022-07-10T00:22:27;13.80;99.90
16154;DHT22;8182;55.648;13.208;2022-07-10T00:24:56;13.80;99.90
16154;DHT22;8182;55.648;13.208;2022-07-10T00:27:25;13.80;99.90
16154;DHT22;8182;55.648;13.208;2022-07-10T00:29:52;13.70;99.90
16154;DHT22;8182;55.648;13.208;2022-07-10T00:32:19;13.70;99.90
16154;DHT22;8182;55.648;13.208;2022-07-10T00:34:47;13.80;99.90
16154;DHT22;8182;55.648;13.208;2022-07-10T00:37:15;13.80;99.90
16154;DHT22;8182;55.648;13.208;2022-07-10T00:39:52;13.90;99.90
16154;DHT22;8182;55.648;13.208;2022-07-10T00:42:21;13.90;99.90
16154;DHT22;8182;55.648;13.208;2022-07-10T00:44:48;13.80;99.90
16154;DHT22;8182;55.648;13.208;2022-07-10T00:47:15;13.80;99.90
16154;DHT22;8182;55.648;13.208;2022-07-10T00:49:45;13.90;99.90
16154;DHT22;8182;55.648;13.208;2022-07-10T00:52:13;14.00;99.90
16154;DHT22;8182;55.648;13.208;2022-07-10T00:54:43;14.00;99.90
16154;DHT22;8182;55.648;13.208;2022-07-10T00:57:13;13.90;99.90
16154;DHT22;8182;55.648;13.208;2022-07-10T00:59:44;14.00;99.90
16154;DHT22;8182;55.648;13.208;2022-07-10T01:02:13;14.00;99.90
16154;DHT22;8182;55.648;13.208;2022-07-10T01:04:41;14.10;99.90
16154;DHT22;8182;55.648;13.208;2022-07-10T01:07:08;14.10;99.90
16154;DHT22;8182;55.648;13.208;2022-07-10T01:09:37;14.00;99.90
16154;DHT22;8182;55.648;13.208;2022-07-10T01:12:05;14.00;99.90
16154;DHT22;8182;55.648;13.208;2022-07-10T01:14:34;14.00;99.90
16154;DHT22;8182;55.648;13.208;2022-07-10T01:17:06;14.10;99.90
16154;DHT22;8182;55.648;13.208;2022-07-10T01:19:35;14.00;99.90
16154;DHT22;8182;55.648;13.208;2022-07-10T01:22:04;13.90;99.90
16154;DHT22;8182;55.648;13.208;2022-07-10T01:24:32;13.90;99.90
16154;DHT22;8182;55.648;13.208;2022-07-10T01:27:00;13.80;99.90
16154;DHT22;8182;55.648;13.208;2022-07-10T01:29:29;13.80;99.90
16154;DHT22;8182;55.648;13.208;2022-07-10T01:31:57;13.80;99.90
16154;DHT22;8182;55.648;13.208;2022-07-10T01:34:25;13.70;99.90
16154;DHT22;8182;55.648;13.208;2022-07-10T01:36:52;13.80;99.90
16154;DHT22;8182;55.648;13.208;2022-07-10T01:39:21;13.70;99.90
16154;DHT22;8182;55.648;13.208;2022-07-10T01:41:48;13.70;99.90
16154;DHT22;8182;55.648;13.208;2022-07-10T01:44:15;13.70;99.90
16154;DHT22;8182;55.648;13.208;2022-07-10T01:46:45;13.60;99.90
16154;DHT22;8182;55.648;13.208;2022-07-10T01:49:14;13.60;99.90
16154;DHT22;8182;55.648;13.208;2022-07-10T01:51:41;13.60;99.90
16154;DHT22;8182;55.648;13.208;2022-07-10T01:54:09;13.60;99.90
16154;DHT22;8182;55.648;13.208;2022-07-10T01:56:38;13.60;99.90
16154;DHT22;8182;55.648;13.208;2022-07-10T01:59:05;13.60;99.90
16154;DHT22;8182;55.648;13.208;2022-07-10T02:01:32;13.60;99.90
16154;DHT22;8182;55.648;13.208;2022-07-10T02:03:59;13.60;99.90
16154;DHT22;8182;55.648;13.208;2022-07-10T02:06:47;13.60;99.90
16154;DHT22;8182;55.648;13.208;2022-07-10T02:09:17;13.50;99.90
16154;DHT22;8182;55.648;13.208;2022-07-10T02:11:46;13.60;99.90
16154;DHT22;8182;55.648;13.208;2022-07-10T02:14:13;13.60;99.90
16154;DHT22;8182;55.648;13.208;2022-07-10T02:16:40;13.60;99.90
16154;DHT22;8182;55.648;13.208;2022-07-10T02:19:07;13.60;99.90
16154;DHT22;8182;55.648;13.208;2022-07-10T02:21:34;13.50;99.90
16154;DHT22;8182;55.648;13.208;2022-07-10T02:24:01;13.50;99.90
16154;DHT22;8182;55.648;13.208;2022-07-10T02:26:28;13.50;99.90
16154;DHT22;8182;55.648;13.208;2022-07-10T02:28:56;13.50;99.90
16154;DHT22;8182;55.648;13.208;2022-07-10T02:31:23;13.50;99.90
16154;DHT22;8182;55.648;13.208;2022-07-10T02:33:50;13.60;99.90
16154;DHT22;8182;55.648;13.208;2022-07-10T02:36:18;13.60;99.90
16154;DHT22;8182;55.648;13.208;2022-07-10T02:38:45;13.60;99.90
16154;DHT22;8182;55.648;13.208;2022-07-10T02:41:15;13.60;99.90
16154;DHT22;8182;55.648;13.208;2022-07-10T02:43:42;13.70;99.90
16154;DHT22;8182;55.648;13.208;2022-07-10T02:46:10;13.80;99.90
16154;DHT22;8182;55.648;13.208;2022-07-10T02:48:37;13.80;99.90
16154;DHT22;8182;55.648;13.208;2022-07-10T02:51:04;13.90;99.90
16154;DHT22;8182;55.648;13.208;2022-07-10T02:53:32;13.90;99.90
16154;DHT22;8182;55.648;13.208;2022-07-10T02:55:59;14.00;99.90
16154;DHT22;8182;55.648;13.208;2022-07-10T02:58:26;14.10;99.90
16154;DHT22;8182;55.648;13.208;2022-07-10T03:00:54;14.20;99.90
16154;DHT22;8182;55.648;13.208;2022-07-10T03:03:23;14.20;99.90
16154;DHT22;8182;55.648;13.208;2022-07-10T03:05:50;14.20;99.90
16154;DHT22;8182;55.648;13.208;2022-07-10T03:08:17;14.30;99.90
16154;DHT22;8182;55.648;13.208;2022-07-10T03:10:48;14.20;99.90
16154;DHT22;8182;55.648;13.208;2022-07-10T03:13:19;14.20;99.90
16154;DHT22;8182;55.648;13.208;2022-07-10T03:15:46;14.10;99.90
16154;DHT22;8182;55.648;13.208;2022-07-10T03:18:13;14.10;99.90
16154;DHT22;8182;55.648;13.208;2022-07-10T03:20:42;14.10;99.90
16154;DHT22;8182;55.648;13.208;2022-07-10T03:23:10;14.10;99.90
16154;DHT22;8182;55.648;13.208;2022-07-10T03:25:37;14.20;99.90
16154;DHT22;8182;55.648;13.208;2022-07-10T03:28:04;14.30;99.90
16154;DHT22;8182;55.648;13.208;2022-07-10T03:30:32;14.40;99.90
16154;DHT22;8182;55.648;13.208;2022-07-10T03:32:59;14.50;99.90
16154;DHT22;8182;55.648;13.208;2022-07-10T03:35:28;14.60;99.90
16154;DHT22;8182;55.648;13.208;2022-07-10T03:37:59;14.60;99.90
16154;DHT22;8182;55.648;13.208;2022-07-10T03:40:27;14.60;99.90
16154;DHT22;8182;55.648;13.208;2022-07-10T03:42:56;14.80;99.90
16154;DHT22;8182;55.648;13.208;2022-07-10T03:45:23;14.90;99.90
16154;DHT22;8182;55.648;13.208;2022-07-10T03:47:50;15.00;99.90
16154;DHT22;8182;55.648;13.208;2022-07-10T03:50:18;15.10;99.90
16154;DHT22;8182;55.648;13.208;2022-07-10T03:52:45;15.00;99.90
16154;DHT22;8182;55.648;13.208;2022-07-10T03:55:17;15.00;99.90
16154;DHT22;8182;55.648;13.208;2022-07-10T03:57:45;15.00;99.90
16154;DHT22;8182;55.648;13.208;2022-07-10T04:00:20;15.00;99.90
16154;DHT22;8182;55.648;13.208;2022-07-10T04:02:49;15.00;99.90
16154;DHT22;8182;55.648;13.208;2022-07-10T04:05:21;14.90;99.90
16154;DHT22;8182;55.648;13.208;2022-07-10T04:07:48;14.90;99.90
16154;DHT22;8182;55.648;13.208;2022-07-10T04:10:17;14.90;99.90
16154;DHT22;8182;55.648;13.208;2022-07-10T04:12:44;14.90;99.90
16154;DHT22;8182;55.648;13.208;2022-07-10T04:15:11;14.90;99.90
16154;DHT22;8182;55.648;13.208;2022-07-10T04:17:38;14.90;99.90
16154;DHT22;8182;55.648;13.208;2022-07-10T04:20:06;14.90;99.90
16154;DHT22;8182;55.648;13.208;2022-07-10T04:22:33;14.90;99.90
16154;DHT22;8182;55.648;13.208;2022-07-10T04:25:00;14.90;99.90
16154;DHT22;8182;55.648;13.208;2022-07-10T04:27:29;15.00;99.90
16154;DHT22;8182;55.648;13.208;2022-07-10T04:30:01;15.10;99.90
16154;DHT22;8182;55.648;13.208;2022-07-10T04:32:32;15.20;99.90
16154;DHT22;8182;55.648;13.208;2022-07-10T04:34:59;15.40;99.90
16154;DHT22;8182;55.648;13.208;2022-07-10T04:37:26;15.40;99.90
16154;DHT22;8182;55.648;13.208;2022-07-10T04:39:54;15.50;99.90
16154;DHT22;8182;55.648;13.208;2022-07-10T04:42:21;15.50;99.90
16154;DHT22;8182;55.648;13.208;2022-07-10T04:44:49;15.60;99.90
16154;DHT22;8182;55.648;13.208;2022-07-10T04:47:17;15.70;99.90
16154;DHT22;8182;55.648;13.208;2022-07-10T04:49:44;15.70;99.90
16154;DHT22;8182;55.648;13.208;2022-07-10T04:52:11;15.80;99.90
16154;DHT22;8182;55.648;13.208;2022-07-10T04:54:38;15.80;99.90
16154;DHT22;8182;55.648;13.208;2022-07-10T04:57:06;15.70;99.90
16154;DHT22;8182;55.648;13.208;2022-07-10T04:59:33;15.70;99.90
16154;DHT22;8182;55.648;13.208;2022-07-10T05:02:02;15.90;99.90
16154;DHT22;8182;55.648;13.208;2022-07-10T05:04:29;16.10;99.90
16154;DHT22;8182;55.648;13.208;2022-07-10T05:06:57;16.20;99.90
16154;DHT22;8182;55.648;13.208;2022-07-10T05:09:24;16.20;99.90
16154;DHT22;8182;55.648;13.208;2022-07-10T05:11:51;16.10;99.90
16154;DHT22;8182;55.648;13.208;2022-07-10T05:14:19;16.40;99.90
16154;DHT22;8182;55.648;13.208;2022-07-10T05:16:47;18.90;99.90
16154;DHT22;8182;55.648;13.208;2022-07-10T05:19:16;21.00;99.90
16154;DHT22;8182;55.648;13.208;2022-07-10T05:21:44;19.60;99.90
16154;DHT22;8182;55.648;13.208;2022-07-10T05:24:11;18.20;99.90
16154;DHT22;8182;55.648;13.208;2022-07-10T05:26:38;17.40;99.90
16154;DHT22;8182;55.648;13.208;2022-07-10T05:29:05;17.30;99.90
16154;DHT22;8182;55.648;13.208;2022-07-10T05:31:32;17.20;99.90
16154;DHT22;8182;55.648;13.208;2022-07-10T05:34:00;16.90;99.90
16154;DHT22;8182;55.648;13.208;2022-07-10T05:36:29;16.90;99.90
16154;DHT22;8182;55.648;13.208;2022-07-10T05:38:56;17.30;99.90
16154;DHT22;8182;55.648;13.208;2022-07-10T05:41:25;20.10;99.90
16154;DHT22;8182;55.648;13.208;2022-07-10T05:43:52;21.40;99.90
16154;DHT22;8182;55.648;13.208;2022-07-10T05:46:19;23.10;99.90
16154;DHT22;8182;55.648;13.208;2022-07-10T05:48:47;23.00;99.90
16154;DHT22;8182;55.648;13.208;2022-07-10T05:51:14;21.50;99.90
16154;DHT22;8182;55.648;13.208;2022-07-10T05:53:42;21.80;99.90
16154;DHT22;8182;55.648;13.208;2022-07-10T05:56:09;20.20;99.90
16154;DHT22;8182;55.648;13.208;2022-07-10T05:58:37;19.60;99.90
16154;DHT22;8182;55.648;13.208;2022-07-10T06:01:05;19.70;99.90
16154;DHT22;8182;55.648;13.208;2022-07-10T06:03:32;21.10;99.90
16154;DHT22;8182;55.648;13.208;2022-07-10T06:06:00;23.50;99.90
16154;DHT22;8182;55.648;13.208;2022-07-10T06:08:27;21.90;99.90
16154;DHT22;8182;55.648;13.208;2022-07-10T06:10:57;19.90;99.90
16154;DHT22;8182;55.648;13.208;2022-07-10T06:13:25;18.70;99.90
16154;DHT22;8182;55.648;13.208;2022-07-10T06:15:52;18.40;99.90
16154;DHT22;8182;55.648;13.208;2022-07-10T06:18:19;18.50;99.90
16154;DHT22;8182;55.648;13.208;2022-07-10T06:20:46;21.70;99.90
16154;DHT22;8182;55.648;13.208;2022-07-10T06:23:14;24.40;99.90
16154;DHT22;8182;55.648;13.208;2022-07-10T06:25:41;26.40;99.90
16154;DHT22;8182;55.648;13.208;2022-07-10T06:28:10;26.10;99.90
16154;DHT22;8182;55.648;13.208;2022-07-10T06:30:37;23.50;99.90
16154;DHT22;8182;55.648;13.208;2022-07-10T06:33:04;25.60;99.90
16154;DHT22;8182;55.648;13.208;2022-07-10T06:35:32;25.10;99.90
16154;DHT22;8182;55.648;13.208;2022-07-10T06:37:59;23.50;99.90
16154;DHT22;8182;55.648;13.208;2022-07-10T06:40:26;21.40;99.90
16154;DHT22;8182;55.648;13.208;2022-07-10T06:42:55;20.70;99.90
16154;DHT22;8182;55.648;13.208;2022-07-10T06:45:24;21.10;99.90
16154;DHT22;8182;55.648;13.208;2022-07-10T06:47:51;21.10;99.90
16154;DHT22;8182;55.648;13.208;2022-07-10T06:50:24;20.80;99.90
16154;DHT22;8182;55.648;13.208;2022-07-10T06:52:52;20.70;99.90
16154;DHT22;8182;55.648;13.208;2022-07-10T06:55:20;20.90;99.90
16154;DHT22;8182;55.648;13.208;2022-07-10T06:57:47;21.30;99.90
16154;DHT22;8182;55.648;13.208;2022-07-10T07:00:14;21.50;99.90
16154;DHT22;8182;55.648;13.208;2022-07-10T07:02:44;21.80;99.90
16154;DHT22;8182;55.648;13.208;2022-07-10T07:05:12;23.20;99.90
16154;DHT22;8182;55.648;13.208;2022-07-10T07:07:40;25.70;99.90
16154;DHT22;8182;55.648;13.208;2022-07-10T07:10:09;26.80;99.90
16154;DHT22;8182;55.648;13.208;2022-07-10T07:12:38;27.80;99.90
16154;DHT22;8182;55.648;13.208;2022-07-10T07:15:07;29.00;99.90
16154;DHT22;8182;55.648;13.208;2022-07-10T07:17:39;29.40;99.90
16154;DHT22;8182;55.648;13.208;2022-07-10T07:20:24;28.20;99.90
16154;DHT22;8182;55.648;13.208;2022-07-10T07:23:09;28.00;99.90
16154;DHT22;8182;55.648;13.208;2022-07-10T07:25:41;27.30;99.90
16154;DHT22;8182;55.648;13.208;2022-07-10T07:28:12;26.30;99.90
16154;DHT22;8182;55.648;13.208;2022-07-10T07:30:41;24.60;99.90
16154;DHT22;8182;55.648;13.208;2022-07-10T07:33:08;23.80;99.90
16154;DHT22;8182;55.648;13.208;2022-07-10T07:35:37;23.30;99.90
16154;DHT22;8182;55.648;13.208;2022-07-10T07:38:04;23.20;99.90
16154;DHT22;8182;55.648;13.208;2022-07-10T07:40:33;23.20;99.90
16154;DHT22;8182;55.648;13.208;2022-07-10T07:43:03;23.50;99.90
16154;DHT22;8182;55.648;13.208;2022-07-10T07:45:30;23.50;99.90
16154;DHT22;8182;55.648;13.208;2022-07-10T07:47:58;23.50;99.90
16154;DHT22;8182;55.648;13.208;2022-07-10T07:50:28;22.80;99.90
16154;DHT22;8182;55.648;13.208;2022-07-10T07:52:59;22.40;99.90
16154;DHT22;8182;55.648;13.208;2022-07-10T07:55:27;22.50;99.90
16154;DHT22;8182;55.648;13.208;2022-07-10T07:57:56;23.00;99.90
16154;DHT22;8182;55.648;13.208;2022-07-10T08:00:24;22.80;99.90
16154;DHT22;8182;55.648;13.208;2022-07-10T08:02:52;22.10;99.90
16154;DHT22;8182;55.648;13.208;2022-07-10T08:05:21;22.20;99.90
16154;DHT22;8182;55.648;13.208;2022-07-10T08:07:51;22.50;99.90
16154;DHT22;8182;55.648;13.208;2022-07-10T08:10:21;24.90;99.90
16154;DHT22;8182;55.648;13.208;2022-07-10T08:12:48;25.10;99.90
16154;DHT22;8182;55.648;13.208;2022-07-10T08:15:17;25.00;99.90
16154;DHT22;8182;55.648;13.208;2022-07-10T08:17:47;25.50;99.90
16154;DHT22;8182;55.648;13.208;2022-07-10T08:20:15;25.40;99.90
16154;DHT22;8182;55.648;13.208;2022-07-10T08:22:43;24.00;99.90
16154;DHT22;8182;55.648;13.208;2022-07-10T08:25:12;28.20;99.90
16154;DHT22;8182;55.648;13.208;2022-07-10T08:27:41;26.30;99.90
16154;DHT22;8182;55.648;13.208;2022-07-10T08:30:09;27.00;99.90
16154;DHT22;8182;55.648;13.208;2022-07-10T08:32:38;29.70;99.90
16154;DHT22;8182;55.648;13.208;2022-07-10T08:35:06;30.70;99.90
16154;DHT22;8182;55.648;13.208;2022-07-10T08:37:37;28.40;99.90
16154;DHT22;8182;55.648;13.208;2022-07-10T08:40:06;28.50;99.90
16154;DHT22;8182;55.648;13.208;2022-07-10T08:42:35;28.60;99.90
16154;DHT22;8182;55.648;13.208;2022-07-10T08:45:04;27.80;99.90
16154;DHT22;8182;55.648;13.208;2022-07-10T08:47:34;27.10;99.90
16154;DHT22;8182;55.648;13.208;2022-07-10T08:50:02;27.00;99.90
16154;DHT22;8182;55.648;13.208;2022-07-10T08:52:33;26.30;99.90
16154;DHT22;8182;55.648;13.208;2022-07-10T08:55:02;29.20;99.90
16154;DHT22;8182;55.648;13.208;2022-07-10T08:57:30;30.80;99.20
16154;DHT22;8182;55.648;13.208;2022-07-10T08:59:57;27.90;99.90
16154;DHT22;8182;55.648;13.208;2022-07-10T09:02:26;26.00;99.90
16154;DHT22;8182;55.648;13.208;2022-07-10T09:05:01;24.60;99.90
16154;DHT22;8182;55.648;13.208;2022-07-10T09:07:34;25.20;99.90
16154;DHT22;8182;55.648;13.208;2022-07-10T09:10:06;25.90;99.90
16154;DHT22;8182;55.648;13.208;2022-07-10T09:12:51;25.60;99.90
16154;DHT22;8182;55.648;13.208;2022-07-10T09:15:21;29.10;99.90
16154;DHT22;8182;55.648;13.208;2022-07-10T09:17:55;28.50;99.90
16154;DHT22;8182;55.648;13.208;2022-07-10T09:20:27;31.10;99.80
16154;DHT22;8182;55.648;13.208;2022-07-10T09:22:56;31.70;98.20
16154;DHT22;8182;55.648;13.208;2022-07-10T09:25:33;32.20;97.30
16154;DHT22;8182;55.648;13.208;2022-07-10T09:28:00;33.10;96.90
16154;DHT22;8182;55.648;13.208;2022-07-10T09:30:35;33.40;96.70
16154;DHT22;8182;55.648;13.208;2022-07-10T09:33:19;34.00;95.50
16154;DHT22;8182;55.648;13.208;2022-07-10T09:35:58;33.70;95.30
16154;DHT22;8182;55.648;13.208;2022-07-10T09:38:53;33.50;96.10
16154;DHT22;8182;55.648;13.208;2022-07-10T09:41:27;34.30;95.00
16154;DHT22;8182;55.648;13.208;2022-07-10T09:43:55;34.10;95.40
16154;DHT22;8182;55.648;13.208;2022-07-10T09:46:24;33.90;94.90
16154;DHT22;8182;55.648;13.208;2022-07-10T09:49:07;33.20;95.20
16154;DHT22;8182;55.648;13.208;2022-07-10T09:51:36;33.90;95.30
16154;DHT22;8182;55.648;13.208;2022-07-10T09:54:05;33.60;94.70
16154;DHT22;8182;55.648;13.208;2022-07-10T09:56:42;33.80;94.30
16154;DHT22;8182;55.648;13.208;2022-07-10T09:59:11;33.90;94.40
16154;DHT22;8182;55.648;13.208;2022-07-10T10:01:42;33.30;94.80
16154;DHT22;8182;55.648;13.208;2022-07-10T10:04:11;33.90;94.50
16154;DHT22;8182;55.648;13.208;2022-07-10T10:06:40;34.10;94.00
16154;DHT22;8182;55.648;13.208;2022-07-10T10:09:12;33.00;94.00
16154;DHT22;8182;55.648;13.208;2022-07-10T10:11:44;33.10;93.80
16154;DHT22;8182;55.648;13.208;2022-07-10T10:14:12;33.70;93.40
16154;DHT22;8182;55.648;13.208;2022-07-10T10:16:39;35.10;92.60
16154;DHT22;8182;55.648;13.208;2022-07-10T10:19:13;34.80;92.50
16154;DHT22;8182;55.648;13.208;2022-07-10T10:21:58;34.10;92.30
16154;DHT22;8182;55.648;13.208;2022-07-10T10:24:26;33.10;93.40
16154;DHT22;8182;55.648;13.208;2022-07-10T10:26:53;33.40;92.60
16154;DHT22;8182;55.648;13.208;2022-07-10T10:29:21;34.20;92.20
16154;DHT22;8182;55.648;13.208;2022-07-10T10:31:48;33.50;91.40
16154;DHT22;8182;55.648;13.208;2022-07-10T10:34:38;33.60;92.00
16154;DHT22;8182;55.648;13.208;2022-07-10T10:37:06;34.50;91.80
16154;DHT22;8182;55.648;13.208;2022-07-10T10:39:53;34.00;92.00
16154;DHT22;8182;55.648;13.208;2022-07-10T10:42:36;33.50;91.80
16154;DHT22;8182;55.648;13.208;2022-07-10T10:45:25;33.70;91.40
16154;DHT22;8182;55.648;13.208;2022-07-10T10:48:01;33.90;91.70
16154;DHT22;8182;55.648;13.208;2022-07-10T10:50:48;34.50;91.30
16154;DHT22;8182;55.648;13.208;2022-07-10T10:53:17;34.40;90.40
16154;DHT22;8182;55.648;13.208;2022-07-10T10:56:22;31.50;90.80
16154;DHT22;8182;55.648;13.208;2022-07-10T10:58:54;28.80;92.90
16154;DHT22;8182;55.648;13.208;2022-07-10T11:01:28;27.40;93.70
16154;DHT22;8182;55.648;13.208;2022-07-10T11:04:15;27.80;93.90
16154;DHT22;8182;55.648;13.208;2022-07-10T11:06:46;29.50;94.10
16154;DHT22;8182;55.648;13.208;2022-07-10T11:09:27;30.90;93.80
16154;DHT22;8182;55.648;13.208;2022-07-10T11:12:02;30.80;92.90
16154;DHT22;8182;55.648;13.208;2022-07-10T11:14:32;31.40;92.80
16154;DHT22;8182;55.648;13.208;2022-07-10T11:17:00;31.90;92.10
16154;DHT22;8182;55.648;13.208;2022-07-10T11:19:29;32.60;92.00
16154;DHT22;8182;55.648;13.208;2022-07-10T11:25:03;30.80;92.50
16154;DHT22;8182;55.648;13.208;2022-07-10T11:27:57;29.70;92.30
16154;DHT22;8182;55.648;13.208;2022-07-10T11:30:27;28.90;92.60
16154;DHT22;8182;55.648;13.208;2022-07-10T11:32:54;28.10;93.50
16154;DHT22;8182;55.648;13.208;2022-07-10T11:35:21;28.10;94.10
16154;DHT22;8182;55.648;13.208;2022-07-10T11:37:53;28.00;92.90
16154;DHT22;8182;55.648;13.208;2022-07-10T11:40:21;26.70;99.90
16154;DHT22;8182;55.648;13.208;2022-07-10T11:42:49;27.00;99.70
16154;DHT22;8182;55.648;13.208;2022-07-10T11:45:27;26.80;98.10
16154;DHT22;8182;55.648;13.208;2022-07-10T11:47:54;26.80;96.80
16154;DHT22;8182;55.648;13.208;2022-07-10T11:50:21;27.20;96.80
16154;DHT22;8182;55.648;13.208;2022-07-10T11:52:49;27.20;96.30
16154;DHT22;8182;55.648;13.208;2022-07-10T11:55:19;26.20;96.00
16154;DHT22;8182;55.648;13.208;2022-07-10T11:57:47;25.10;96.60
16154;DHT22;8182;55.648;13.208;2022-07-10T12:00:22;24.20;96.20
16154;DHT22;8182;55.648;13.208;2022-07-10T12:02:49;24.00;97.20
16154;DHT22;8182;55.648;13.208;2022-07-10T12:05:35;24.00;97.50
16154;DHT22;8182;55.648;13.208;2022-07-10T12:08:02;24.10;97.90
16154;DHT22;8182;55.648;13.208;2022-07-10T12:10:32;24.60;97.10
16154;DHT22;8182;55.648;13.208;2022-07-10T12:13:04;25.00;96.90
16154;DHT22;8182;55.648;13.208;2022-07-10T12:15:32;25.00;97.30
16154;DHT22;8182;55.648;13.208;2022-07-10T12:17:59;25.30;97.30
16154;DHT22;8182;55.648;13.208;2022-07-10T12:20:27;25.60;95.80
16154;DHT22;8182;55.648;13.208;2022-07-10T12:22:54;25.90;95.90
16154;DHT22;8182;55.648;13.208;2022-07-10T12:25:23;25.70;94.20
16154;DHT22;8182;55.648;13.208;2022-07-10T12:27:55;24.90;94.70
16154;DHT22;8182;55.648;13.208;2022-07-10T12:30:22;24.70;93.70
16154;DHT22;8182;55.648;13.208;2022-07-10T12:32:49;24.60;94.60
16154;DHT22;8182;55.648;13.208;2022-07-10T12:35:17;24.60;92.20
16154;DHT22;8182;55.648;13.208;2022-07-10T12:37:48;24.20;92.30
16154;DHT22;8182;55.648;13.208;2022-07-10T12:40:32;24.00;93.80
16154;DHT22;8182;55.648;13.208;2022-07-10T12:43:03;24.10;93.50
16154;DHT22;8182;55.648;13.208;2022-07-10T12:45:33;24.00;93.30
16154;DHT22;8182;55.648;13.208;2022-07-10T12:48:00;23.90;93.80
16154;DHT22;8182;55.648;13.208;2022-07-10T12:50:29;23.90;93.90
16154;DHT22;8182;55.648;13.208;2022-07-10T12:53:09;23.70;94.10
16154;DHT22;8182;55.648;13.208;2022-07-10T12:55:37;23.80;94.80
16154;DHT22;8182;55.648;13.208;2022-07-10T12:58:09;23.80;94.70
16154;DHT22;8182;55.648;13.208;2022-07-10T13:00:44;23.70;94.90
16154;DHT22;8182;55.648;13.208;2022-07-10T13:03:17;23.70;95.70
16154;DHT22;8182;55.648;13.208;2022-07-10T13:05:45;23.80;95.50
16154;DHT22;8182;55.648;13.208;2022-07-10T13:08:13;23.60;95.00
16154;DHT22;8182;55.648;13.208;2022-07-10T13:10:43;23.60;95.80
16154;DHT22;8182;55.648;13.208;2022-07-10T13:13:12;23.50;95.50
16154;DHT22;8182;55.648;13.208;2022-07-10T13:15:40;23.20;95.90
16154;DHT22;8182;55.648;13.208;2022-07-10T13:18:12;23.30;96.70
16154;DHT22;8182;55.648;13.208;2022-07-10T13:20:39;23.30;96.30
16154;DHT22;8182;55.648;13.208;2022-07-10T13:23:06;23.20;96.10
16154;DHT22;8182;55.648;13.208;2022-07-10T13:25:34;23.10;95.90
16154;DHT22;8182;55.648;13.208;2022-07-10T13:28:01;23.10;95.60
16154;DHT22;8182;55.648;13.208;2022-07-10T13:30:29;23.20;95.20
16154;DHT22;8182;55.648;13.208;2022-07-10T13:32:57;23.40;96.70
16154;DHT22;8182;55.648;13.208;2022-07-10T13:35:24;23.20;96.30
16154;DHT22;8182;55.648;13.208;2022-07-10T13:37:53;23.10;95.80
16154;DHT22;8182;55.648;13.208;2022-07-10T13:40:20;23.00;96.20
16154;DHT22;8182;55.648;13.208;2022-07-10T13:42:47;23.00;95.70
16154;DHT22;8182;55.648;13.208;2022-07-10T13:45:14;23.00;95.80
16154;DHT22;8182;55.648;13.208;2022-07-10T13:47:42;22.90;95.50
16154;DHT22;8182;55.648;13.208;2022-07-10T13:50:12;23.00;95.40
16154;DHT22;8182;55.648;13.208;2022-07-10T13:52:39;22.80;96.50
16154;DHT22;8182;55.648;13.208;2022-07-10T13:55:07;22.80;96.30
16154;DHT22;8182;55.648;13.208;2022-07-10T13:57:34;22.90;96.80
16154;DHT22;8182;55.648;13.208;2022-07-10T14:00:01;22.90;95.70
16154;DHT22;8182;55.648;13.208;2022-07-10T14:02:28;22.90;95.10
16154;DHT22;8182;55.648;13.208;2022-07-10T14:04:56;22.60;95.80
16154;DHT22;8182;55.648;13.208;2022-07-10T14:07:23;22.70;95.90
16154;DHT22;8182;55.648;13.208;2022-07-10T14:09:50;22.70;96.40
16154;DHT22;8182;55.648;13.208;2022-07-10T14:12:17;22.60;96.60
16154;DHT22;8182;55.648;13.208;2022-07-10T14:14:44;22.60;95.70
16154;DHT22;8182;55.648;13.208;2022-07-10T14:17:11;22.60;96.20
16154;DHT22;8182;55.648;13.208;2022-07-10T14:19:38;22.60;96.50
16154;DHT22;8182;55.648;13.208;2022-07-10T14:22:08;22.50;96.50
16154;DHT22;8182;55.648;13.208;2022-07-10T14:24:35;22.50;95.30
16154;DHT22;8182;55.648;13.208;2022-07-10T14:27:02;22.40;95.30
16154;DHT22;8182;55.648;13.208;2022-07-10T14:29:29;22.40;95.40
16154;DHT22;8182;55.648;13.208;2022-07-10T14:31:56;22.40;96.60
16154;DHT22;8182;55.648;13.208;2022-07-10T14:34:23;22.40;95.60
16154;DHT22;8182;55.648;13.208;2022-07-10T14:36:51;22.30;95.60
16154;DHT22;8182;55.648;13.208;2022-07-10T14:39:19;22.20;96.60
16154;DHT22;8182;55.648;13.208;2022-07-10T14:41:46;22.20;96.90
16154;DHT22;8182;55.648;13.208;2022-07-10T14:44:13;22.10;96.20
16154;DHT22;8182;55.648;13.208;2022-07-10T14:46:40;22.20;96.50
16154;DHT22;8182;55.648;13.208;2022-07-10T14:49:08;22.20;95.40
16154;DHT22;8182;55.648;13.208;2022-07-10T14:51:35;22.00;97.10
16154;DHT22;8182;55.648;13.208;2022-07-10T14:54:02;22.00;97.70
16154;DHT22;8182;55.648;13.208;2022-07-10T14:56:30;22.10;98.30
16154;DHT22;8182;55.648;13.208;2022-07-10T14:58:57;22.00;97.30
16154;DHT22;8182;55.648;13.208;2022-07-10T15:01:24;22.10;98.50
16154;DHT22;8182;55.648;13.208;2022-07-10T15:03:51;22.10;98.50
16154;DHT22;8182;55.648;13.208;2022-07-10T15:06:20;22.10;97.80
16154;DHT22;8182;55.648;13.208;2022-07-10T15:08:47;21.80;97.40
16154;DHT22;8182;55.648;13.208;2022-07-10T15:11:16;21.80;97.90
16154;DHT22;8182;55.648;13.208;2022-07-10T15:13:45;22.00;98.00
16154;DHT22;8182;55.648;13.208;2022-07-10T15:16:12;21.80;97.70
16154;DHT22;8182;55.648;13.208;2022-07-10T15:18:39;21.70;97.40
16154;DHT22;8182;55.648;13.208;2022-07-10T15:21:06;21.50;98.70
16154;DHT22;8182;55.648;13.208;2022-07-10T15:23:34;21.60;98.60
16154;DHT22;8182;55.648;13.208;2022-07-10T15:26:01;21.60;98.50
16154;DHT22;8182;55.648;13.208;2022-07-10T15:28:30;21.60;97.30
16154;DHT22;8182;55.648;13.208;2022-07-10T15:30:58;21.50;97.30
16154;DHT22;8182;55.648;13.208;2022-07-10T15:33:27;21.50;97.10
16154;DHT22;8182;55.648;13.208;2022-07-10T15:35:53;21.30;97.50
16154;DHT22;8182;55.648;13.208;2022-07-10T15:38:20;21.30;96.50
16154;DHT22;8182;55.648;13.208;2022-07-10T15:40:47;21.30;97.30
16154;DHT22;8182;55.648;13.208;2022-07-10T15:43:14;21.20;96.90
16154;DHT22;8182;55.648;13.208;2022-07-10T15:45:41;21.30;96.80